METAR Data
IDs: Format: Raw Decoded Include TAF

Data at: 0043 UTC 25 Apr 2019

METAR for:KRDK (Red Oak Muni, IA, US)
Text:KRDK 250035Z AUTO 20005KT 10SM CLR 21/05 A2978 RMK AO2
Temperature: 21.0°C ( 70°F)
Dewpoint: 5.0°C ( 41°F) [RH = 35%]
Pressure (altimeter):29.78 inches Hg (1008.5 mb)
Winds:from the SSW (200 degrees) at 6 MPH (5 knots; 2.6 m/s)
Visibility:10 or more sm (16+ km)
Ceiling:at least 12,000 feet AGL
Clouds:sky clear below 12,000 feet AGL
QC Flag:automated observation with no human augmentation